Time,TemperatureF,DewpointF,PressureIn,WindDirection,WindDirectionDegrees,WindSpeedMPH,WindSpeedGustMPH,Humidity,HourlyPrecipIn,Conditions,Clouds,dailyrainin,SoftwareType,DateUTC
2015-04-01 00:00:00,38.9,30.6,29.90,South,178,3.0,3.0,72,0.00,,,0.00,Wunderground v.1.12,2015-04-01 06:00:00,
2015-04-01 00:10:00,38.5,30.3,29.90,SSW,192,2.0,2.0,72,0.00,,,0.00,Wunderground v.1.12,2015-04-01 06:10:00,
2015-04-01 00:15:00,38.8,30.5,29.90,SSW,196,7.0,7.0,72,0.00,,,0.00,Wunderground v.1.12,2015-04-01 06:15:00,
2015-04-01 00:20:00,37.9,29.7,29.90,SSE,154,1.0,1.0,72,0.00,,,0.00,Wunderground v.1.12,2015-04-01 06:20:00,
2015-04-01 00:25:00,38.5,30.3,29.90,WSW,257,0.0,0.0,72,0.00,,,0.00,Wunderground v.1.12,2015-04-01 06:25:00,
2015-04-01 00:30:00,38.2,30.3,29.90,South,169,1.0,1.0,73,0.00,,,0.00,Wunderground v.1.12,2015-04-01 06:30:00,
2015-04-01 00:35:00,38.3,30.7,29.89,SE,125,0.0,0.0,74,0.00,,,0.00,Wunderground v.1.12,2015-04-01 06:35:00,
2015-04-01 00:45:00,37.7,29.5,29.90,East,98,1.0,1.0,72,0.00,,,0.00,Wunderground v.1.12,2015-04-01 06:45:00,
2015-04-01 00:50:00,38.1,30.5,29.90,West,263,3.0,3.0,74,0.00,,,0.00,Wunderground v.1.12,2015-04-01 06:50:00,
2015-04-01 00:55:00,37.9,29.7,29.90,East,94,0.0,0.0,72,0.00,,,0.00,Wunderground v.1.12,2015-04-01 06:55:00,
2015-04-01 01:00:00,37.5,30.3,29.90,SE,125,4.0,4.0,75,0.00,,,0.00,Wunderground v.1.12,2015-04-01 07:00:00,
2015-04-01 01:06:00,37.0,30.1,29.90,SE,127,0.0,0.0,76,0.00,,,0.00,Wunderground v.1.12,2015-04-01 07:06:00,
2015-04-01 01:15:00,37.0,30.8,29.90,SSE,165,5.0,5.0,78,0.00,,,0.00,Wunderground v.1.12,2015-04-01 07:15:00,
2015-04-01 01:20:00,36.6,30.7,29.90,ESE,119,0.0,0.0,79,0.00,,,0.00,Wunderground v.1.12,2015-04-01 07:20:00,
2015-04-01 01:25:00,37.0,31.1,29.90,ESE,120,0.0,0.0,79,0.00,,,0.00,Wunderground v.1.12,2015-04-01 07:25:00,
2015-04-01 01:30:00,36.4,30.5,29.90,ESE,120,1.0,1.0,79,0.00,,,0.00,Wunderground v.1.12,2015-04-01 07:30:00,
2015-04-01 01:35:00,36.5,30.6,29.90,South,181,0.0,0.0,79,0.00,,,0.00,Wunderground v.1.12,2015-04-01 07:35:00,
2015-04-01 01:40:00,36.3,30.7,29.90,South,184,0.0,0.0,80,0.00,,,0.00,Wunderground v.1.12,2015-04-01 07:40:00,
2015-04-01 01:50:00,35.9,30.3,29.90,ESE,110,3.0,3.0,80,0.00,,,0.00,Wunderground v.1.12,2015-04-01 07:50:00,
2015-04-01 01:55:00,36.1,29.6,29.90,WNW,287,0.0,0.0,77,0.00,,,0.00,Wunderground v.1.12,2015-04-01 07:55:00,
2015-04-01 02:00:00,36.1,29.6,29.90,SSE,162,1.0,1.0,77,0.00,,,0.00,Wunderground v.1.12,2015-04-01 08:00:00,
2015-04-01 02:05:00,36.0,29.8,29.90,SE,133,1.0,1.0,78,0.00,,,0.00,Wunderground v.1.12,2015-04-01 08:05:00,
2015-04-01 02:10:00,36.0,30.1,29.90,SSE,151,3.0,3.0,79,0.00,,,0.00,Wunderground v.1.12,2015-04-01 08:10:00,
2015-04-01 02:15:00,36.3,30.4,29.90,NW,317,3.0,3.0,79,0.00,,,0.00,Wunderground v.1.12,2015-04-01 08:15:00,
2015-04-01 02:25:00,35.8,29.6,29.90,NW,326,0.0,0.0,78,0.00,,,0.00,Wunderground v.1.12,2015-04-01 08:25:00,
2015-04-01 02:30:00,35.8,29.9,29.90,NNW,339,0.0,0.0,79,0.00,,,0.00,Wunderground v.1.12,2015-04-01 08:30:00,
2015-04-01 02:35:00,36.1,30.2,29.90,NNW,339,0.0,0.0,79,0.00,,,0.00,Wunderground v.1.12,2015-04-01 08:35:00,
2015-04-01 02:40:00,35.3,29.4,29.90,NNW,337,0.0,0.0,79,0.00,,,0.00,Wunderground v.1.12,2015-04-01 08:40:00,
2015-04-01 02:45:00,35.2,-99.9,29.89,NNW,342,1.0,1.0,255,0.00,,,0.00,Wunderground v.1.12,2015-04-01 08:45:00,
2015-04-01 02:50:00,34.8,28.3,29.90,NW,316,0.0,0.0,77,0.00,,,0.00,Wunderground v.1.12,2015-04-01 08:50:00,
2015-04-01 03:00:00,34.7,28.5,29.90,WSW,243,0.0,0.0,78,0.00,,,0.00,Wunderground v.1.12,2015-04-01 09:00:00,
2015-04-01 03:05:00,34.7,28.5,29.90,SW,228,1.0,1.0,78,0.00,,,0.00,Wunderground v.1.12,2015-04-01 09:05:00,
2015-04-01 03:10:00,35.0,27.5,29.90,South,182,2.0,2.0,74,0.00,,,0.00,Wunderground v.1.12,2015-04-01 09:10:00,
2015-04-01 03:15:00,35.2,28.4,29.90,SSE,167,1.0,1.0,76,0.00,,,0.00,Wunderground v.1.12,2015-04-01 09:15:00,
2015-04-01 03:20:00,35.3,28.8,29.90,South,183,0.0,0.0,77,0.00,,,0.00,Wunderground v.1.12,2015-04-01 09:20:00,
2015-04-01 03:30:00,34.5,28.0,29.90,SSW,197,0.0,0.0,77,0.00,,,0.00,Wunderground v.1.12,2015-04-01 09:30:00,
2015-04-01 03:35:00,34.5,28.0,29.90,South,185,1.0,1.0,77,0.00,,,0.00,Wunderground v.1.12,2015-04-01 09:35:00,
2015-04-01 03:40:00,34.6,27.8,29.90,WNW,287,1.0,1.0,76,0.00,,,0.00,Wunderground v.1.12,2015-04-01 09:40:00,
2015-04-01 03:45:00,34.1,27.0,29.90,SSW,193,3.0,3.0,75,0.00,,,0.00,Wunderground v.1.12,2015-04-01 09:45:00,
2015-04-01 03:50:00,34.1,27.0,29.90,SSW,193,3.0,3.0,75,0.00,,,0.00,Wunderground v.1.12,2015-04-01 09:50:00,
2015-04-01 03:55:00,34.2,27.1,29.90,South,185,1.0,1.0,75,0.00,,,0.00,Wunderground v.1.12,2015-04-01 09:55:00,
2015-04-01 04:05:00,33.8,25.7,29.90,SSW,199,3.0,3.0,72,0.00,,,0.00,Wunderground v.1.12,2015-04-01 10:05:00,
2015-04-01 04:10:00,33.9,25.8,29.90,South,191,1.0,1.0,72,0.00,,,0.00,Wunderground v.1.12,2015-04-01 10:10:00,
2015-04-01 04:15:00,33.8,25.7,29.90,SSE,166,4.0,4.0,72,0.00,,,0.00,Wunderground v.1.12,2015-04-01 10:15:00,
2015-04-01 04:20:00,33.7,26.3,29.90,South,181,3.0,3.0,74,0.00,,,0.00,Wunderground v.1.12,2015-04-01 10:20:00,
2015-04-01 04:25:00,33.8,25.7,29.90,SSE,164,4.0,4.0,72,0.00,,,0.00,Wunderground v.1.12,2015-04-01 10:25:00,
2015-04-01 04:35:00,34.0,24.5,29.89,SSW,200,2.0,2.0,68,0.00,,,0.00,Wunderground v.1.12,2015-04-01 10:35:00,
2015-04-01 04:40:00,34.4,24.9,29.90,South,183,4.0,4.0,68,0.00,,,0.00,Wunderground v.1.12,2015-04-01 10:40:00,
2015-04-01 04:45:00,34.5,25.0,29.90,SSW,202,5.0,5.0,68,0.00,,,0.00,Wunderground v.1.12,2015-04-01 10:45:00,
2015-04-01 04:50:00,33.8,24.4,29.90,South,187,3.0,3.0,68,0.00,,,0.00,Wunderground v.1.12,2015-04-01 10:50:00,
2015-04-01 04:55:00,34.4,24.9,29.90,SSE,162,1.0,1.0,68,0.00,,,0.00,Wunderground v.1.12,2015-04-01 10:55:00,
2015-04-01 05:00:00,34.3,24.8,29.90,South,174,2.0,2.0,68,0.00,,,0.00,Wunderground v.1.12,2015-04-01 11:00:00,
2015-04-01 05:10:00,33.7,24.6,29.90,South,169,0.0,0.0,69,0.00,,,0.00,Wunderground v.1.12,2015-04-01 11:10:00,
2015-04-01 05:15:00,33.8,25.0,29.90,SE,132,1.0,1.0,70,0.00,,,0.00,Wunderground v.1.12,2015-04-01 11:15:00,
2015-04-01 05:20:00,33.5,25.1,29.90,South,172,2.0,2.0,71,0.00,,,0.00,Wunderground v.1.12,2015-04-01 11:20:00,
2015-04-01 05:25:00,33.7,25.6,29.90,SE,130,2.0,2.0,72,0.00,,,0.00,Wunderground v.1.12,2015-04-01 11:25:00,
2015-04-01 05:30:00,33.4,25.3,29.89,NNW,343,3.0,3.0,72,0.00,,,0.00,Wunderground v.1.12,2015-04-01 11:30:00,
2015-04-01 05:35:00,33.7,26.3,29.90,NE,45,0.0,0.0,74,0.00,,,0.00,Wunderground v.1.12,2015-04-01 11:35:00,
2015-04-01 05:45:00,33.6,25.5,29.89,West,260,1.0,1.0,72,0.00,,,0.00,Wunderground v.1.12,2015-04-01 11:45:00,
2015-04-01 05:50:00,33.5,25.1,29.90,South,186,3.0,3.0,71,0.00,,,0.00,Wunderground v.1.12,2015-04-01 11:50:00,
2015-04-01 05:55:00,34.0,25.2,29.90,South,170,3.0,3.0,70,0.00,,,0.00,Wunderground v.1.12,2015-04-01 11:55:00,
2015-04-01 06:00:00,34.3,25.2,29.90,SSE,167,2.0,2.0,69,0.00,,,0.00,Wunderground v.1.12,2015-04-01 12:00:00,
2015-04-01 06:05:00,34.3,24.8,29.90,South,190,7.0,7.0,68,0.00,,,0.00,Wunderground v.1.12,2015-04-01 12:05:00,
2015-04-01 06:10:00,34.4,24.9,29.90,South,183,11.0,11.0,68,0.00,,,0.00,Wunderground v.1.12,2015-04-01 12:10:00,
2015-04-01 06:20:00,34.8,25.3,29.90,SE,130,3.0,3.0,68,0.00,,,0.00,Wunderground v.1.12,2015-04-01 12:20:00,
2015-04-01 06:25:00,34.9,25.4,29.90,SSE,156,4.0,4.0,68,0.00,,,0.00,Wunderground v.1.12,2015-04-01 12:25:00,
2015-04-01 06:30:00,34.3,24.8,29.90,SSE,149,3.0,3.0,68,0.00,,,0.00,Wunderground v.1.12,2015-04-01 12:30:00,
2015-04-01 06:35:00,34.9,25.4,29.89,SSE,165,0.0,0.0,68,0.00,,,0.00,Wunderground v.1.12,2015-04-01 12:35:00,
2015-04-01 06:40:00,34.0,24.9,29.90,SSW,200,1.0,1.0,69,0.00,,,0.00,Wunderground v.1.12,2015-04-01 12:40:00,
2015-04-01 06:50:00,33.8,25.0,29.90,SSE,152,2.0,2.0,70,0.00,,,0.00,Wunderground v.1.12,2015-04-01 12:50:00,
2015-04-01 06:55:00,33.7,25.0,29.90,SSE,168,1.0,1.0,70,0.00,,,0.00,Wunderground v.1.12,2015-04-01 12:55:00,
2015-04-01 07:00:00,33.9,25.1,29.90,South,174,1.0,1.0,70,0.00,,,0.00,Wunderground v.1.12,2015-04-01 13:00:00,
2015-04-01 07:05:00,33.3,24.6,29.90,SSE,161,5.0,5.0,70,0.00,,,0.00,Wunderground v.1.12,2015-04-01 13:05:00,
2015-04-01 07:10:00,33.2,24.5,29.90,ESE,123,5.0,5.0,70,0.00,,,0.00,Wunderground v.1.12,2015-04-01 13:10:00,
2015-04-01 07:15:00,33.1,24.4,29.90,South,175,3.0,3.0,70,0.00,,,0.00,Wunderground v.1.12,2015-04-01 13:15:00,
2015-04-01 07:25:00,33.9,24.8,29.90,SSE,147,6.0,6.0,69,0.00,,,0.00,Wunderground v.1.12,2015-04-01 13:25:00,
2015-04-01 07:30:00,33.9,24.8,29.90,ESE,120,0.0,0.0,69,0.00,,,0.00,Wunderground v.1.12,2015-04-01 13:30:00,
2015-04-01 07:35:00,33.7,24.6,29.90,SSE,155,3.0,3.0,69,0.00,,,0.00,Wunderground v.1.12,2015-04-01 13:35:00,
2015-04-01 07:40:00,34.0,24.5,29.90,East,88,5.0,5.0,68,0.00,,,0.00,Wunderground v.1.12,2015-04-01 13:40:00,
2015-04-01 07:50:00,34.0,24.9,29.90,SE,138,3.0,3.0,69,0.00,,,0.00,Wunderground v.1.12,2015-04-01 13:50:00,
2015-04-01 08:00:00,33.8,24.7,29.90,South,173,1.0,1.0,69,0.00,,,0.00,Wunderground v.1.12,2015-04-01 14:00:00,
2015-04-01 08:05:00,34.4,25.6,29.90,SSE,149,4.0,4.0,70,0.00,,,0.00,Wunderground v.1.12,2015-04-01 14:05:00,
2015-04-01 08:10:00,33.8,25.0,29.90,SE,134,2.0,2.0,70,0.00,,,0.00,Wunderground v.1.12,2015-04-01 14:10:00,
2015-04-01 08:15:00,34.0,25.6,29.90,SE,128,3.0,3.0,71,0.00,,,0.00,Wunderground v.1.12,2015-04-01 14:15:00,
2015-04-01 08:25:00,33.8,25.7,29.90,SE,143,4.0,4.0,72,0.00,,,0.00,Wunderground v.1.12,2015-04-01 14:25:00,
2015-04-01 08:30:00,35.1,26.6,29.90,SSE,155,5.0,5.0,71,0.00,,,0.00,Wunderground v.1.12,2015-04-01 14:30:00,
2015-04-01 08:35:00,36.5,27.6,29.90,South,171,2.0,2.0,70,0.00,,,0.00,Wunderground v.1.12,2015-04-01 14:35:00,
2015-04-01 08:40:00,37.5,27.5,29.90,SE,128,3.0,3.0,67,0.00,,,0.00,Wunderground v.1.12,2015-04-01 14:40:00,
2015-04-01 08:45:00,38.2,27.8,29.90,SE,143,3.0,3.0,66,0.00,,,0.00,Wunderground v.1.12,2015-04-01 14:45:00,
2015-04-01 08:50:00,39.5,29.1,29.90,SE,124,4.0,4.0,66,0.00,,,0.00,Wunderground v.1.12,2015-04-01 14:50:00,
2015-04-01 09:00:00,41.0,29.4,29.90,SSE,161,5.0,5.0,63,0.00,,,0.00,Wunderground v.1.12,2015-04-01 15:00:00,
2015-04-01 09:05:00,41.4,29.3,29.90,SSW,212,1.0,1.0,62,0.00,,,0.00,Wunderground v.1.12,2015-04-01 15:05:00,
2015-04-01 09:10:00,42.0,29.5,29.90,South,175,12.0,12.0,61,0.00,,,0.00,Wunderground v.1.12,2015-04-01 15:10:00,
2015-04-01 09:15:00,42.4,29.5,29.90,SSE,159,6.0,6.0,60,0.00,,,0.00,Wunderground v.1.12,2015-04-01 15:15:00,
2015-04-01 09:25:00,43.7,30.3,29.90,South,169,4.0,4.0,59,0.00,,,0.00,Wunderground v.1.12,2015-04-01 15:25:00,
2015-04-01 09:30:00,44.2,30.8,29.90,WSW,238,1.0,1.0,59,0.00,,,0.00,Wunderground v.1.12,2015-04-01 15:30:00,